createdAt,value
2022-10-06T00:02:03.293Z,99968.44
2022-10-06T00:04:34.973Z,99972.75
2022-10-06T00:07:06.886Z,99980.84
2022-10-06T00:09:38.535Z,99981.84
2022-10-06T00:12:10.281Z,99981.66
2022-10-06T00:14:41.874Z,99992.63
2022-10-06T00:17:13.482Z,99991.47
2022-10-06T00:19:45.393Z,99997.41
2022-10-06T00:22:20.031Z,100001.38
2022-10-06T00:24:53.813Z,99999.25
2022-10-06T00:27:25.389Z,100006.22
2022-10-06T00:29:56.989Z,100007.03
2022-10-06T00:32:28.569Z,100013.81
2022-10-06T00:35:00.259Z,100002.06
2022-10-06T00:37:36.791Z,99999.91
2022-10-06T00:40:09.931Z,99999.56
2022-10-06T00:42:59.413Z,100005.53
2022-10-06T00:45:45.050Z,99995.75
2022-10-06T00:48:23.224Z,100001.88
2022-10-06T00:50:58.649Z,100000.88
2022-10-06T00:53:31.889Z,99997.25
2022-10-06T00:56:03.531Z,99999.06
2022-10-06T00:58:38.057Z,100000.06
2022-10-06T01:01:11.938Z,100000.88
2022-10-06T01:04:09.283Z,100000.53
2022-10-06T01:06:51.814Z,100003.88
2022-10-06T01:09:24.054Z,100001.38
2022-10-06T01:12:01.877Z,100010.50
2022-10-06T01:14:39.203Z,100003.69
2022-10-06T01:17:32.261Z,100004.22
2022-10-06T01:20:15.240Z,100005.53
2022-10-06T01:22:51.333Z,100012.00
2022-10-06T01:25:23.402Z,100010.84
2022-10-06T01:27:57.372Z,100013.50
2022-10-06T01:30:41.905Z,100014.00
2022-10-06T01:33:13.997Z,100016.81
2022-10-06T01:35:49.137Z,100010.81
2022-10-06T01:38:22.040Z,100015.47
2022-10-06T01:40:57.439Z,100010.34
2022-10-06T01:43:33.135Z,100007.03
2022-10-06T01:46:05.008Z,100008.03
2022-10-06T01:48:39.693Z,100014.31
2022-10-06T01:51:16.126Z,100011.16
2022-10-06T01:53:47.752Z,100012.16
2022-10-06T01:56:22.166Z,100016.66
2022-10-06T01:58:53.891Z,100024.91
2022-10-06T02:01:25.524Z,100024.22
2022-10-06T02:03:59.408Z,100016.47
2022-10-06T02:06:31.511Z,100017.63
2022-10-06T02:09:03.815Z,100012.31
2022-10-06T02:11:38.672Z,100009.19
2022-10-06T02:14:10.762Z,100015.97
2022-10-06T02:16:43.293Z,100012.63
2022-10-06T02:19:16.412Z,100012.13
2022-10-06T02:21:48.209Z,100014.94
2022-10-06T02:24:19.875Z,100008.16
2022-10-06T02:26:52.567Z,100005.50
2022-10-06T02:29:24.996Z,100013.63
2022-10-06T02:31:57.503Z,100016.44
2022-10-06T02:34:29.599Z,100010.59
2022-10-06T02:37:02.769Z,100026.69
2022-10-06T02:39:37.383Z,100022.38
2022-10-06T02:42:09.077Z,100026.84
2022-10-06T02:44:43.872Z,100029.78
2022-10-06T02:47:16.036Z,100021.19
2022-10-06T02:49:48.009Z,100029.16
2022-10-06T02:52:21.306Z,100029.25
2022-10-06T02:54:53.279Z,100032.41
2022-10-06T02:57:24.908Z,100042.50
2022-10-06T02:59:57.145Z,100043.97
2022-10-06T03:02:32.742Z,100042.00
2022-10-06T03:05:05.049Z,100043.53
2022-10-06T03:07:38.172Z,100049.66
2022-10-06T03:10:11.475Z,100052.94
2022-10-06T03:12:43.273Z,100057.53
2022-10-06T03:15:21.313Z,100059.84
2022-10-06T03:17:53.028Z,100067.66
2022-10-06T03:20:27.714Z,100060.38
2022-10-06T03:23:03.173Z,100064.84
2022-10-06T03:25:34.931Z,100070.81
2022-10-06T03:28:06.934Z,100067.50
2022-10-06T03:30:38.738Z,100072.25
2022-10-06T03:33:13.650Z,100075.75
2022-10-06T03:35:45.875Z,100078.88
2022-10-06T03:38:18.171Z,100084.16
2022-10-06T03:40:49.904Z,100087.34
2022-10-06T03:43:21.542Z,100096.72
2022-10-06T03:46:03.228Z,100097.06
2022-10-06T03:48:36.877Z,100102.19
2022-10-06T03:51:13.202Z,100110.97
2022-10-06T03:53:50.680Z,100117.72
2022-10-06T03:56:26.925Z,100120.97
2022-10-06T03:59:04.075Z,100119.31
2022-10-06T04:01:42.052Z,100122.78
2022-10-06T04:04:15.848Z,100124.44
2022-10-06T04:06:49.485Z,100131.56
2022-10-06T04:09:23.719Z,100131.72
2022-10-06T04:11:56.522Z,100132.09
2022-10-06T04:14:28.140Z,100136.91
2022-10-06T04:17:01.627Z,100132.44
2022-10-06T04:19:43.009Z,100144.38
2022-10-06T04:22:14.679Z,100142.41
2022-10-06T04:24:47.069Z,100148.25
2022-10-06T04:27:31.150Z,100140.13
2022-10-06T04:30:09.442Z,100144.13
2022-10-06T04:32:41.529Z,100146.59
2022-10-06T04:35:13.241Z,100149.09
2022-10-06T04:37:46.561Z,100144.63
2022-10-06T04:40:18.856Z,100140.47
2022-10-06T04:42:50.598Z,100144.78
2022-10-06T04:45:22.218Z,100149.09
2022-10-06T04:47:53.872Z,100143.94
2022-10-06T04:50:26.371Z,100145.09
2022-10-06T04:53:17.086Z,100146.09
2022-10-06T04:55:57.168Z,100157.50
2022-10-06T04:58:34.171Z,100155.84
2022-10-06T05:01:15.796Z,100159.19
2022-10-06T05:03:49.238Z,100160.66
2022-10-06T05:06:25.006Z,100158.28
2022-10-06T05:08:59.813Z,100166.25
2022-10-06T05:11:34.462Z,100169.09
2022-10-06T05:14:09.246Z,100163.31
2022-10-06T05:16:44.633Z,100168.97
2022-10-06T05:19:20.569Z,100169.16
2022-10-06T05:21:55.350Z,100181.97
2022-10-06T05:24:31.014Z,100187.59
2022-10-06T05:27:03.940Z,100191.59
2022-10-06T05:29:36.981Z,100201.06
2022-10-06T05:32:14.054Z,100203.28
2022-10-06T05:34:46.615Z,100214.75
2022-10-06T05:37:18.539Z,100224.56
2022-10-06T05:39:50.153Z,100230.13
2022-10-06T05:42:24.135Z,100227.72
2022-10-06T05:44:59.204Z,100234.38
2022-10-06T05:47:30.964Z,100224.03
2022-10-06T05:50:03.745Z,100219.47
2022-10-06T05:52:38.770Z,100225.66
2022-10-06T05:55:11.125Z,100224.34
2022-10-06T05:57:43.664Z,100215.84
2022-10-06T06:00:15.721Z,100219.75
2022-10-06T06:02:50.167Z,100224.25
2022-10-06T06:05:21.972Z,100232.09
2022-10-06T06:07:53.934Z,100230.59
2022-10-06T06:10:25.620Z,100225.91
2022-10-06T06:12:57.532Z,100228.56
2022-10-06T06:16:00.241Z,100225.59
2022-10-06T06:18:34.116Z,100224.78
2022-10-06T06:21:07.954Z,100234.00
2022-10-06T06:23:59.553Z,100241.75
2022-10-06T06:26:34.032Z,100250.00
2022-10-06T06:29:06.695Z,100258.00
2022-10-06T06:31:48.590Z,100265.50
2022-10-06T06:34:20.837Z,100278.25
2022-10-06T06:36:55.134Z,100275.63
2022-10-06T06:39:27.235Z,100271.66
2022-10-06T06:41:58.954Z,100279.81
2022-10-06T06:44:58.940Z,100280.75
2022-10-06T06:47:43.790Z,100289.19
2022-10-06T06:50:18.773Z,100290.28
2022-10-06T06:52:50.501Z,100288.63
2022-10-06T06:55:22.247Z,100289.16
2022-10-06T06:57:54.808Z,100286.47
2022-10-06T07:00:27.048Z,100284.81
2022-10-06T07:03:00.638Z,100285.53
2022-10-06T07:05:34.922Z,100295.56
2022-10-06T07:08:11.835Z,100294.75
2022-10-06T07:10:45.086Z,100304.00
2022-10-06T07:13:17.432Z,100303.81
2022-10-06T07:16:08.861Z,100312.47
2022-10-06T07:18:59.272Z,100308.56
2022-10-06T07:21:50.621Z,100316.91
2022-10-06T07:24:40.899Z,100319.47
2022-10-06T07:27:13.127Z,100316.06
2022-10-06T07:29:46.841Z,100321.59
2022-10-06T07:32:21.171Z,100319.72
2022-10-06T07:34:55.131Z,100331.69
2022-10-06T07:37:29.007Z,100326.00
2022-10-06T07:40:03.293Z,100327.28
2022-10-06T07:42:48.730Z,100325.63
2022-10-06T07:45:40.994Z,100319.94
2022-10-06T07:48:21.493Z,100315.94
2022-10-06T07:51:18.258Z,100323.03
2022-10-06T07:53:50.790Z,100320.03
2022-10-06T07:56:54.869Z,100317.91
2022-10-06T07:59:26.852Z,100323.84
2022-10-06T08:02:00.381Z,100323.53
2022-10-06T08:04:32.002Z,100327.81
2022-10-06T08:07:07.508Z,100323.50
2022-10-06T08:09:39.157Z,100314.13
2022-10-06T08:12:36.992Z,100326.94
2022-10-06T08:15:11.395Z,100345.28
2022-10-06T08:17:43.038Z,100348.97
2022-10-06T08:20:15.786Z,100358.97
2022-10-06T08:22:47.908Z,100362.47
2022-10-06T08:25:20.313Z,100367.50
2022-10-06T08:27:54.615Z,100360.41
2022-10-06T08:30:28.872Z,100365.16
2022-10-06T08:33:00.585Z,100379.78
2022-10-06T08:35:33.075Z,100383.06
2022-10-06T08:38:04.874Z,100388.69
2022-10-06T08:40:41.111Z,100390.56
2022-10-06T08:43:18.127Z,100389.00
2022-10-06T08:45:52.898Z,100394.47
2022-10-06T08:48:26.867Z,100391.97
2022-10-06T08:51:29.353Z,100405.25
2022-10-06T08:54:30.449Z,100402.16
2022-10-06T08:57:25.059Z,100410.56
2022-10-06T08:59:58.747Z,100407.59
2022-10-06T09:02:42.098Z,100408.09
2022-10-06T09:05:23.179Z,100411.81
2022-10-06T09:08:25.548Z,100411.81
2022-10-06T09:11:21.379Z,100412.00
2022-10-06T09:14:01.571Z,100418.91
2022-10-06T09:16:39.887Z,100419.94
2022-10-06T09:19:24.552Z,100419.38
2022-10-06T09:21:58.319Z,100426.78
2022-10-06T09:24:37.400Z,100425.97
2022-10-06T09:27:21.526Z,100430.41
2022-10-06T09:29:53.532Z,100429.00
2022-10-06T09:32:28.400Z,100427.81
2022-10-06T09:35:00.121Z,100433.94
2022-10-06T09:37:53.823Z,100439.91
2022-10-06T09:40:49.205Z,100444.09
2022-10-06T09:43:27.011Z,100452.88
2022-10-06T09:46:28.876Z,100453.78
2022-10-06T09:49:07.899Z,100460.22
2022-10-06T09:51:39.585Z,100457.31
2022-10-06T09:54:14.941Z,100466.69
2022-10-06T09:56:47.272Z,100465.09
2022-10-06T09:59:22.022Z,100465.84
2022-10-06T10:01:55.403Z,100465.13
2022-10-06T10:04:31.355Z,100471.06
2022-10-06T10:07:26.735Z,100474.38
2022-10-06T10:10:24.401Z,100493.44
2022-10-06T10:12:58.677Z,100501.06
2022-10-06T10:15:48.261Z,100508.09
2022-10-06T10:18:26.823Z,100513.53
2022-10-06T10:21:07.611Z,100535.88
2022-10-06T10:23:55.268Z,100551.75
2022-10-06T10:26:32.968Z,100542.47
2022-10-06T10:29:33.356Z,100557.91
2022-10-06T10:32:18.776Z,100562.34
2022-10-06T10:35:08.488Z,100556.03
2022-10-06T10:37:51.730Z,100564.75
2022-10-06T10:40:37.409Z,100573.84
2022-10-06T10:43:15.678Z,100571.56
2022-10-06T10:45:52.258Z,100567.16
2022-10-06T10:48:51.724Z,100573.13
2022-10-06T10:51:29.366Z,100587.88
2022-10-06T10:54:18.958Z,100603.28
2022-10-06T10:56:52.720Z,100604.44
2022-10-06T10:59:39.293Z,100616.25
2022-10-06T11:02:13.159Z,100618.56
2022-10-06T11:04:50.598Z,100621.84
2022-10-06T11:07:44.336Z,100615.09
2022-10-06T11:10:20.932Z,100622.31
2022-10-06T11:13:11.189Z,100618.19
2022-10-06T11:16:20.071Z,100614.09
2022-10-06T11:19:41.941Z,100625.34
2022-10-06T11:22:32.000Z,100623.84
2022-10-06T11:25:23.403Z,100622.63
2022-10-06T11:28:13.269Z,100616.19
2022-10-06T11:31:03.838Z,100623.00
2022-10-06T11:33:50.023Z,100616.84
2022-10-06T11:36:40.097Z,100622.19
2022-10-06T11:39:20.541Z,100624.97
2022-10-06T11:42:25.867Z,100624.22
2022-10-06T11:45:04.225Z,100638.88
2022-10-06T11:48:03.805Z,100633.25
2022-10-06T11:50:42.299Z,100627.63
2022-10-06T11:53:31.960Z,100634.63
2022-10-06T11:56:15.591Z,100632.50
2022-10-06T11:59:09.868Z,100649.84
2022-10-06T12:01:43.791Z,100639.59
2022-10-06T12:04:19.531Z,100638.25
2022-10-06T12:06:57.219Z,100640.50
2022-10-06T12:09:31.925Z,100639.03
2022-10-06T12:12:17.826Z,100639.97
2022-10-06T12:18:27.473Z,100630.13
2022-10-06T12:21:23.276Z,100626.50
2022-10-06T12:24:19.265Z,100622.56
2022-10-06T12:27:23.407Z,100629.66
2022-10-06T12:30:03.470Z,100622.25
2022-10-06T12:32:41.279Z,100613.16
2022-10-06T12:35:16.861Z,100618.13
2022-10-06T12:37:54.240Z,100607.19
2022-10-06T12:40:40.325Z,100619.78
2022-10-06T12:43:14.613Z,100609.38
2022-10-06T12:46:17.021Z,100618.69
2022-10-06T12:48:56.423Z,100616.81
2022-10-06T12:51:41.112Z,100623.06
2022-10-06T12:54:45.988Z,100618.31
2022-10-06T12:57:28.571Z,100614.63
2022-10-06T13:00:00.253Z,100617.56
2022-10-06T13:02:32.162Z,100626.63
2022-10-06T13:05:12.237Z,100627.13
2022-10-06T13:08:20.028Z,100627.19
2022-10-06T13:11:10.185Z,100625.09
2022-10-06T13:13:54.129Z,100622.41
2022-10-06T13:16:33.957Z,100618.47
2022-10-06T13:19:06.436Z,100625.22
2022-10-06T13:21:40.807Z,100616.50
2022-10-06T13:24:14.487Z,100623.41
2022-10-06T13:26:49.807Z,100621.25
2022-10-06T13:29:25.016Z,100612.03
2022-10-06T13:31:56.817Z,100613.97
2022-10-06T13:34:33.284Z,100622.47
2022-10-06T13:37:05.318Z,100620.94
2022-10-06T13:39:40.244Z,100623.75
2022-10-06T13:42:20.358Z,100611.81
2022-10-06T13:45:00.927Z,100620.09
2022-10-06T13:47:33.513Z,100623.16
2022-10-06T13:50:08.482Z,100627.13
2022-10-06T13:52:43.809Z,100624.25
2022-10-06T13:55:22.055Z,100627.50
2022-10-06T13:58:05.155Z,100631.22
2022-10-06T14:01:00.824Z,100624.19
2022-10-06T14:06:19.099Z,100618.75
2022-10-06T14:08:55.081Z,100618.97
2022-10-06T14:11:29.609Z,100620.25
2022-10-06T14:14:02.289Z,100626.78
2022-10-06T14:16:34.055Z,100629.22
2022-10-06T14:19:06.311Z,100632.38
2022-10-06T14:21:42.505Z,100626.44
2022-10-06T14:24:17.931Z,100626.25
2022-10-06T14:26:50.583Z,100625.44
2022-10-06T14:29:26.439Z,100626.16
2022-10-06T14:32:14.692Z,100620.22
2022-10-06T14:34:47.290Z,100622.22
2022-10-06T14:37:18.943Z,100621.31
2022-10-06T14:39:51.035Z,100621.75
2022-10-06T14:42:24.327Z,100624.31
2022-10-06T14:44:56.229Z,100631.00
2022-10-06T14:47:27.983Z,100630.25
2022-10-06T14:49:59.666Z,100635.78
2022-10-06T14:52:31.328Z,100632.94
2022-10-06T14:55:07.906Z,100631.34
2022-10-06T14:57:39.763Z,100633.19
2022-10-06T15:00:11.886Z,100630.94
2022-10-06T15:02:44.057Z,100630.69
2022-10-06T15:05:16.107Z,100630.25
2022-10-06T15:08:06.230Z,100634.91
2022-10-06T15:10:39.128Z,100632.72
2022-10-06T15:13:10.719Z,100633.81
2022-10-06T15:15:42.501Z,100639.91
2022-10-06T15:18:15.112Z,100634.19
2022-10-06T15:20:47.941Z,100638.25
2022-10-06T15:23:20.112Z,100635.13
2022-10-06T15:26:11.401Z,100632.47
2022-10-06T15:29:01.068Z,100640.31
2022-10-06T15:31:58.668Z,100636.97
2022-10-06T15:34:33.472Z,100641.63
2022-10-06T15:37:06.251Z,100643.00
2022-10-06T15:39:40.893Z,100638.22
2022-10-06T15:42:12.635Z,100643.66
2022-10-06T15:44:44.336Z,100649.56
2022-10-06T15:47:15.947Z,100650.13
2022-10-06T15:49:49.243Z,100655.38
2022-10-06T15:52:20.864Z,100645.25
2022-10-06T15:54:52.545Z,100650.09
2022-10-06T15:57:25.359Z,100647.81
2022-10-06T15:59:57.021Z,100644.97
2022-10-06T16:02:35.183Z,100639.34
2022-10-06T16:05:07.729Z,100637.94
2022-10-06T16:07:39.397Z,100650.03
2022-10-06T16:10:12.138Z,100647.25
2022-10-06T16:12:46.656Z,100648.94
2022-10-06T16:15:18.222Z,100664.25
2022-10-06T16:17:50.132Z,100660.63
2022-10-06T16:20:21.785Z,100666.84
2022-10-06T16:22:56.434Z,100667.13
2022-10-06T16:25:28.041Z,100666.34
2022-10-06T16:27:59.802Z,100668.91
2022-10-06T16:30:32.585Z,100670.81
2022-10-06T16:33:04.282Z,100669.56
2022-10-06T16:35:35.972Z,100666.28
2022-10-06T16:38:07.566Z,100672.50
2022-10-06T16:40:39.245Z,100669.88
2022-10-06T16:43:10.912Z,100677.53
2022-10-06T16:45:42.559Z,100677.41
2022-10-06T16:48:14.204Z,100678.94
2022-10-06T16:50:46.011Z,100680.47
2022-10-06T16:53:18.658Z,100680.31
2022-10-06T16:55:50.315Z,100690.34
2022-10-06T16:58:21.978Z,100694.91
2022-10-06T17:00:58.141Z,100693.41
2022-10-06T17:03:29.966Z,100698.78
2022-10-06T17:06:13.408Z,100699.63
2022-10-06T17:08:45.254Z,100691.47
2022-10-06T17:11:21.421Z,100708.28
2022-10-06T17:13:58.010Z,100704.81
2022-10-06T17:16:32.597Z,100711.34
2022-10-06T17:19:04.549Z,100704.97
2022-10-06T17:21:57.375Z,100710.47
2022-10-06T17:24:29.242Z,100703.28
2022-10-06T17:27:01.052Z,100702.13
2022-10-06T17:29:32.878Z,100706.28
2022-10-06T17:32:04.592Z,100716.94
2022-10-06T17:34:36.271Z,100705.44
2022-10-06T17:37:07.878Z,100715.88
2022-10-06T17:39:41.549Z,100709.38
2022-10-06T17:42:17.944Z,100717.03
2022-10-06T17:44:49.572Z,100715.00
2022-10-06T17:47:21.174Z,100716.50
2022-10-06T17:49:52.846Z,100719.81
2022-10-06T17:52:24.567Z,100715.13
2022-10-06T17:54:57.150Z,100716.75
2022-10-06T17:57:29.746Z,100718.22
2022-10-06T18:00:01.383Z,100724.97
2022-10-06T18:02:46.134Z,100720.16
2022-10-06T18:05:17.889Z,100720.94
2022-10-06T18:07:49.552Z,100722.41
2022-10-06T18:10:40.569Z,100721.22
2022-10-06T18:13:12.136Z,100722.97
2022-10-06T18:15:43.838Z,100714.00
2022-10-06T18:18:16.352Z,100718.94
2022-10-06T18:20:48.294Z,100719.56
2022-10-06T18:23:19.956Z,100715.84
2022-10-06T18:25:51.602Z,100728.59
2022-10-06T18:28:23.273Z,100725.59
2022-10-06T18:30:55.008Z,100721.44
2022-10-06T18:36:19.881Z,100724.16
2022-10-06T18:38:55.243Z,100722.81
2022-10-06T18:41:28.316Z,100725.09
2022-10-06T18:44:07.440Z,100733.53
2022-10-06T18:46:57.920Z,100728.00
2022-10-06T18:49:29.974Z,100732.75
2022-10-06T18:52:01.724Z,100738.66
2022-10-06T18:54:33.348Z,100744.56
2022-10-06T18:57:04.966Z,100740.56
2022-10-06T18:59:37.742Z,100736.25
2022-10-06T19:02:10.505Z,100736.38
2022-10-06T19:04:42.695Z,100738.47
2022-10-06T19:07:14.313Z,100740.91
2022-10-06T19:09:47.038Z,100741.81
2022-10-06T19:12:18.893Z,100742.09
2022-10-06T19:14:51.175Z,100737.09
2022-10-06T19:17:27.975Z,100742.56
2022-10-06T19:19:59.742Z,100748.16
2022-10-06T19:22:31.951Z,100749.59
2022-10-06T19:25:05.312Z,100743.03
2022-10-06T19:27:37.629Z,100746.00
2022-10-06T19:30:13.581Z,100742.13
2022-10-06T19:32:45.823Z,100745.06
2022-10-06T19:35:18.379Z,100742.72
2022-10-06T19:37:51.185Z,100748.47
2022-10-06T19:40:25.777Z,100752.38
2022-10-06T19:42:57.893Z,100754.63
2022-10-06T19:45:29.688Z,100755.22
2022-10-06T19:48:01.375Z,100754.81
2022-10-06T19:50:33.488Z,100756.94
2022-10-06T19:53:07.991Z,100758.19
2022-10-06T19:55:43.530Z,100753.06
2022-10-06T19:58:15.269Z,100755.00
2022-10-06T20:00:50.290Z,100762.25
2022-10-06T20:03:21.906Z,100766.72
2022-10-06T20:05:53.569Z,100765.22
2022-10-06T20:08:25.230Z,100766.31
2022-10-06T20:11:05.107Z,100767.31
2022-10-06T20:13:39.237Z,100769.25
2022-10-06T20:16:17.208Z,100776.50
2022-10-06T20:18:50.530Z,100773.47
2022-10-06T20:21:30.035Z,100772.22
2022-10-06T20:24:25.121Z,100772.53
2022-10-06T20:26:56.728Z,100769.31
2022-10-06T20:29:28.560Z,100764.13
2022-10-06T20:32:00.375Z,100773.22
2022-10-06T20:34:32.892Z,100770.00
2022-10-06T20:37:05.355Z,100764.47
2022-10-06T20:39:56.194Z,100769.19
2022-10-06T20:42:28.654Z,100779.22
2022-10-06T20:45:00.402Z,100776.00
2022-10-06T20:47:33.277Z,100776.28
2022-10-06T20:50:05.428Z,100779.91
2022-10-06T20:52:38.685Z,100782.13
2022-10-06T20:55:10.589Z,100777.94
2022-10-06T20:57:45.598Z,100778.91
2022-10-06T21:00:17.888Z,100769.72
2022-10-06T21:02:56.021Z,100772.53
2022-10-06T21:05:30.987Z,100779.91
2022-10-06T21:08:02.613Z,100772.94
2022-10-06T21:10:34.318Z,100773.94
2022-10-06T21:13:05.986Z,100780.44
2022-10-06T21:15:45.372Z,100768.34
2022-10-06T21:18:18.548Z,100775.59
2022-10-06T21:21:05.224Z,100772.94
2022-10-06T21:23:40.271Z,100781.00
2022-10-06T21:26:12.982Z,100774.31
2022-10-06T21:28:44.958Z,100778.91
2022-10-06T21:31:19.241Z,100779.75
2022-10-06T21:33:51.884Z,100772.94
2022-10-06T21:36:26.116Z,100777.81
2022-10-06T21:38:59.074Z,100774.47
2022-10-06T21:41:35.411Z,100772.78
2022-10-06T21:44:11.548Z,100769.44
2022-10-06T21:46:54.394Z,100769.72
2022-10-06T21:49:29.627Z,100768.16
2022-10-06T21:52:05.124Z,100767.63
2022-10-06T21:54:39.607Z,100766.38
2022-10-06T21:57:15.870Z,100770.94
2022-10-06T21:59:47.690Z,100772.91
2022-10-06T22:02:22.106Z,100771.34
2022-10-06T22:04:54.050Z,100767.16
2022-10-06T22:07:27.701Z,100767.16
2022-10-06T22:09:59.330Z,100773.56
2022-10-06T22:12:31.015Z,100772.03
2022-10-06T22:15:02.967Z,100771.34
2022-10-06T22:17:37.569Z,100768.00
2022-10-06T22:20:09.895Z,100759.34
2022-10-06T22:22:44.581Z,100763.13
2022-10-06T22:25:16.078Z,100756.56
2022-10-06T22:27:47.776Z,100755.84
2022-10-06T22:30:20.523Z,100755.84
2022-10-06T22:32:52.335Z,100748.88
2022-10-06T22:35:23.945Z,100753.50
2022-10-06T22:37:55.636Z,100745.81
2022-10-06T22:40:27.654Z,100751.53
2022-10-06T22:43:04.844Z,100741.91
2022-10-06T22:45:36.457Z,100748.44
2022-10-06T22:48:08.150Z,100744.13
2022-10-06T22:50:39.908Z,100739.38
2022-10-06T22:53:15.236Z,100748.13
2022-10-06T22:55:47.890Z,100741.47
2022-10-06T22:58:19.630Z,100742.69
2022-10-06T23:00:51.629Z,100742.13
2022-10-06T23:03:24.072Z,100736.25
2022-10-06T23:05:58.558Z,100738.34
2022-10-06T23:08:35.060Z,100738.44
2022-10-06T23:11:10.478Z,100743.06
2022-10-06T23:13:43.421Z,100732.06
2022-10-06T23:16:17.212Z,100733.97
2022-10-06T23:18:49.326Z,100726.44
2022-10-06T23:21:24.128Z,100727.63
2022-10-06T23:23:59.627Z,100725.28
2022-10-06T23:26:32.055Z,100723.03
2022-10-06T23:29:04.637Z,100729.41
2022-10-06T23:31:36.630Z,100725.94
2022-10-06T23:34:08.414Z,100726.88
2022-10-06T23:36:40.022Z,100719.25
2022-10-06T23:39:11.760Z,100727.16
2022-10-06T23:41:43.477Z,100723.94
2022-10-06T23:44:15.511Z,100723.66
2022-10-06T23:46:47.220Z,100715.84
2022-10-06T23:49:19.274Z,100714.28
2022-10-06T23:51:50.940Z,100718.03
2022-10-06T23:54:22.614Z,100713.13
2022-10-06T23:56:55.643Z,100720.38
2022-10-06T23:59:28.327Z,100720.59
